Time;durP1;ratioP1;P1;durP2;ratioP2;P2;SDS_P1;SDS_P2;PMS_P1;PMS_P2;Temp;Humidity;BMP_temperature;BMP_pressure;BME280_temperature;BME280_humidity;BME280_pressure;Samples;Min_cycle;Max_cycle;Signal;HPM_P1;HPM_P2
2021/12/20 00:01:56;;;;;;;15.38;6.10;;;5.90;99.90;;;;;;5003124;28;88204;-35
2021/12/20 00:04:22;;;;;;;26.67;7.15;;;5.90;99.90;;;;;;5003207;28;89422;-43
2021/12/20 00:06:47;;;;;;;33.05;6.95;;;5.90;99.90;;;;;;5002987;28;90519;-39
2021/12/20 00:09:13;;;;;;;21.23;6.03;;;5.90;99.90;;;;;;5002822;28;88269;-38
2021/12/20 00:11:39;;;;;;;23.63;6.10;;;5.80;99.90;;;;;;5002958;28;89788;-45
2021/12/20 00:14:04;;;;;;;28.58;6.93;;;5.80;99.90;;;;;;5003566;28;88906;-35
2021/12/20 00:16:30;;;;;;;29.13;6.82;;;5.80;99.90;;;;;;5002776;28;90112;-43
2021/12/20 00:18:56;;;;;;;15.75;6.07;;;5.70;99.90;;;;;;5003023;28;89525;-37
2021/12/20 00:21:21;;;;;;;18.60;6.03;;;5.70;99.90;;;;;;5002370;28;89357;-36
2021/12/20 00:23:47;;;;;;;25.95;7.00;;;5.60;99.90;;;;;;5002704;28;89214;-40
2021/12/20 00:26:12;;;;;;;20.98;7.22;;;5.60;99.90;;;;;;5000916;28;89575;-36
2021/12/20 00:28:38;;;;;;;17.42;6.28;;;5.50;99.90;;;;;;5003281;28;89705;-45
2021/12/20 00:31:04;;;;;;;25.48;6.07;;;5.40;99.90;;;;;;5002523;28;88719;-40
2021/12/20 00:33:33;;;;;;;26.65;6.63;;;5.30;99.90;;;;;;5002179;28;88146;-37
2021/12/20 00:36:04;;;;;;;34.10;8.05;;;5.30;99.90;;;;;;5000173;28;90456;-42
2021/12/20 00:41:14;;;;;;;31.80;5.95;;;5.20;99.90;;;;;;5002108;28;89478;-42
2021/12/20 00:43:40;;;;;;;22.05;7.55;;;5.10;99.90;;;;;;5002467;28;88234;-41
2021/12/20 00:46:05;;;;;;;19.35;6.50;;;5.10;99.90;;;;;;5001288;28;90147;-38
2021/12/20 00:48:31;;;;;;;24.33;6.22;;;5.00;99.90;;;;;;5002485;28;89739;-36
2021/12/20 00:50:57;;;;;;;20.48;6.53;;;4.90;99.90;;;;;;5001444;28;88702;-36
2021/12/20 00:53:22;;;;;;;21.05;5.68;;;4.90;99.90;;;;;;5003631;28;88113;-35
2021/12/20 00:55:48;;;;;;;20.70;6.57;;;4.80;99.90;;;;;;5001826;28;90261;-39
2021/12/20 00:58:14;;;;;;;22.85;6.75;;;4.80;99.90;;;;;;5002251;28;89306;-40
2021/12/20 01:00:44;;;;;;;28.13;6.88;;;4.80;99.90;;;;;;5002590;28;87639;-40
2021/12/20 01:03:09;;;;;;;23.90;6.95;;;4.80;99.90;;;;;;5001490;28;88624;-37
2021/12/20 01:05:38;;;;;;;21.08;6.57;;;4.70;99.90;;;;;;5002207;28;90034;-43
2021/12/20 01:08:05;;;;;;;;;;;4.60;99.90;;;;;;5002573;28;90074;-44
2021/12/20 01:10:32;;;;;;;27.30;7.47;;;4.60;99.90;;;;;;5002944;28;89462;-40
2021/12/20 01:13:00;;;;;;;28.52;7.78;;;4.50;99.90;;;;;;5001578;28;87623;-38
2021/12/20 01:15:41;;;;;;;32.83;8.32;;;4.50;99.90;;;;;;5002184;28;90507;-36
2021/12/20 01:18:07;;;;;;;23.83;7.78;;;4.40;99.90;;;;;;5001371;28;89910;-38
2021/12/20 01:20:35;;;;;;;23.35;8.00;;;4.40;99.90;;;;;;5002357;28;88709;-36
2021/12/20 01:23:01;;;;;;;32.42;8.13;;;4.40;99.90;;;;;;5001937;28;87957;-39
2021/12/20 01:25:26;;;;;;;24.50;7.40;;;4.30;99.90;;;;;;5002035;28;90566;-39
2021/12/20 01:27:53;;;;;;;21.38;5.88;;;4.30;99.90;;;;;;5001629;28;88757;-36
2021/12/20 01:30:21;;;;;;;28.05;6.30;;;4.20;99.90;;;;;;5001281;28;89049;-41
2021/12/20 01:32:47;;;;;;;27.48;6.53;;;4.20;99.90;;;;;;5001710;28;88726;-39
2021/12/20 01:35:14;;;;;;;24.17;7.40;;;4.10;99.90;;;;;;5001792;28;88841;-34
2021/12/20 01:37:40;;;;;;;34.70;6.60;;;4.10;99.90;;;;;;5002087;28;89636;-35
2021/12/20 01:40:08;;;;;;;36.92;8.05;;;4.00;99.90;;;;;;5002191;28;87656;-39
2021/12/20 01:42:35;;;;;;;20.02;6.60;;;4.00;99.90;;;;;;5001100;28;87638;-43
2021/12/20 01:45:02;;;;;;;25.65;6.43;;;4.00;99.90;;;;;;5000829;28;90696;-38
2021/12/20 01:47:31;;;;;;;17.92;6.90;;;4.00;99.90;;;;;;5001596;28;89533;-39
2021/12/20 01:50:03;;;;;;;30.00;7.60;;;3.90;99.90;;;;;;5000772;28;90375;-36
2021/12/20 01:52:39;;;;;;;23.85;7.20;;;3.90;99.90;;;;;;5001905;28;88007;-41
2021/12/20 01:55:06;;;;;;;25.23;7.75;;;3.80;99.90;;;;;;5001322;28;90274;-35
2021/12/20 01:57:32;;;;;;;34.60;7.97;;;3.80;99.90;;;;;;5000936;28;91012;-39
2021/12/20 01:59:58;;;;;;;21.58;5.85;;;3.80;99.90;;;;;;5001473;28;88887;-38
2021/12/20 02:02:23;;;;;;;28.67;7.25;;;3.70;99.90;;;;;;5000954;28;89628;-37
2021/12/20 02:04:51;;;;;;;16.20;6.20;;;3.70;99.90;;;;;;5000477;28;90488;-41
2021/12/20 02:07:49;;;;;;;24.63;6.00;;;3.70;99.90;;;;;;5001368;28;90413;-35
2021/12/20 02:10:05;;;;;;;;;;;3.60;99.90;;;;;;5001488;28;87662;-35
2021/12/20 02:12:30;;;;;;;20.67;5.90;;;3.60;99.90;;;;;;5003079;28;88232;-40
2021/12/20 02:14:56;;;;;;;30.23;6.00;;;3.60;99.90;;;;;;5000963;28;90311;-34
2021/12/20 02:17:21;;;;;;;24.35;6.80;;;3.50;99.90;;;;;;5001264;28;89731;-40
2021/12/20 02:19:47;;;;;;;23.15;7.05;;;3.50;99.90;;;;;;5000816;28;87583;-36
2021/12/20 02:22:12;;;;;;;28.85;6.25;;;3.50;99.90;;;;;;5001019;28;88124;-40
2021/12/20 02:24:38;;;;;;;31.45;6.35;;;3.50;99.90;;;;;;5000656;28;90157;-39
2021/12/20 02:27:04;;;;;;;21.88;6.65;;;3.40;99.90;;;;;;4998995;28;88712;-37
2021/12/20 02:29:43;;;;;;;22.20;6.00;;;3.40;99.90;;;;;;5001041;28;87535;-41
2021/12/20 02:37:38;;;;;;;21.58;5.65;;;3.40;99.90;;;;;;5001136;28;89483;-39
2021/12/20 02:40:04;;;;;;;25.40;5.55;;;3.40;99.90;;;;;;5000048;28;88872;-33
2021/12/20 02:45:47;;;;;;;31.60;7.07;;;3.30;99.90;;;;;;4924650;28;89486;-43
2021/12/20 02:48:31;;;;;;;19.52;5.38;;;3.20;99.90;;;;;;4922106;28;92305;-35
2021/12/20 02:50:57;;;;;;;22.38;5.57;;;3.30;99.90;;;;;;4921581;28;89114;-42
2021/12/20 02:53:23;;;;;;;26.83;7.13;;;3.20;99.90;;;;;;4921590;28;87764;-38
2021/12/20 02:55:49;;;;;;;20.10;5.00;;;3.20;99.90;;;;;;4921446;28;90241;-38
2021/12/20 02:58:14;;;;;;;20.65;5.53;;;3.20;99.90;;;;;;4921594;28;89928;-44
2021/12/20 03:00:40;;;;;;;11.85;5.72;;;3.20;99.90;;;;;;4922309;28;89772;-38
2021/12/20 03:03:07;;;;;;;24.17;5.53;;;3.10;99.90;;;;;;4921092;28;88884;-41
2021/12/20 03:05:33;;;;;;;25.98;7.28;;;3.10;99.90;;;;;;4921551;28;89317;-33
2021/12/20 03:08:00;;;;;;;18.65;6.03;;;3.20;99.90;;;;;;4921274;28;89524;-37
2021/12/20 03:10:27;;;;;;;26.02;5.30;;;3.10;99.90;;;;;;4913580;28;89483;-36
2021/12/20 03:12:54;;;;;;;19.52;6.45;;;3.10;99.90;;;;;;4903108;28;88332;-34
2021/12/20 03:15:23;;;;;;;22.83;6.20;;;3.10;99.90;;;;;;4902748;28;91692;-37
2021/12/20 03:17:52;;;;;;;24.35;6.93;;;3.10;99.90;;;;;;4902003;28;91667;-39
2021/12/20 03:20:20;;;;;;;34.50;6.60;;;3.10;99.90;;;;;;4902756;28;90322;-38
2021/12/20 03:22:46;;;;;;;18.87;5.80;;;3.10;99.90;;;;;;4901818;28;87691;-43
2021/12/20 03:25:12;;;;;;;14.73;4.93;;;3.10;99.90;;;;;;4903038;28;90165;-39
2021/12/20 03:27:37;;;;;;;26.63;5.88;;;3.00;99.90;;;;;;4901863;28;89720;-41
2021/12/20 03:30:07;;;;;;;18.88;5.93;;;3.00;99.90;;;;;;4901718;28;89172;-43
2021/12/20 03:32:33;;;;;;;15.45;5.20;;;3.00;99.90;;;;;;4902339;28;89297;-44
2021/12/20 03:34:58;;;;;;;19.10;5.93;;;3.10;99.90;;;;;;4902330;28;90332;-37
2021/12/20 03:37:24;;;;;;;15.57;4.97;;;3.00;99.90;;;;;;4902083;28;89723;-34
2021/12/20 03:39:49;;;;;;;20.48;5.85;;;3.00;99.90;;;;;;4900764;28;88661;-39
2021/12/20 03:42:15;;;;;;;12.88;4.25;;;3.00;99.90;;;;;;4901784;28;89867;-36
2021/12/20 03:44:44;;;;;;;17.52;5.80;;;3.00;99.90;;;;;;4901799;28;90135;-44
2021/12/20 03:47:12;;;;;;;30.17;6.50;;;3.10;99.90;;;;;;4902471;28;89387;-35
2021/12/20 03:49:38;;;;;;;18.33;5.70;;;3.00;99.90;;;;;;4902662;28;89680;-35
2021/12/20 03:52:07;;;;;;;18.10;4.65;;;3.00;99.90;;;;;;4902047;28;87717;-36
2021/12/20 03:54:33;;;;;;;19.30;4.90;;;3.00;99.90;;;;;;4904854;28;90394;-36
2021/12/20 03:56:59;;;;;;;17.30;4.63;;;2.90;99.90;;;;;;4904604;28;89278;-38
2021/12/20 03:59:25;;;;;;;25.23;6.20;;;2.90;99.90;;;;;;4905637;28;88325;-38
2021/12/20 04:01:51;;;;;;;18.23;5.30;;;2.90;99.90;;;;;;4905277;28;89815;-39
2021/12/20 04:04:16;;;;;;;13.25;4.93;;;2.80;99.90;;;;;;4905019;28;90060;-33
2021/12/20 04:06:42;;;;;;;20.15;4.35;;;2.80;99.90;;;;;;4904213;28;89768;-39
2021/12/20 04:09:08;;;;;;;16.77;4.20;;;2.80;99.90;;;;;;4904534;28;89282;-40
2021/12/20 04:11:34;;;;;;;21.17;4.68;;;2.70;99.90;;;;;;4904885;28;87660;-40
2021/12/20 04:14:01;;;;;;;12.82;3.70;;;2.70;99.90;;;;;;4905018;28;91178;-39
2021/12/20 04:16:28;;;;;;;11.80;3.92;;;2.70;99.90;;;;;;4905073;28;89865;-42
2021/12/20 04:18:55;;;;;;;15.68;4.97;;;2.70;99.90;;;;;;4905222;28;89803;-37
2021/12/20 04:21:21;;;;;;;13.48;4.13;;;2.70;99.90;;;;;;4905081;28;87696;-34
2021/12/20 04:23:47;;;;;;;24.25;4.78;;;2.70;99.90;;;;;;4904982;28;90416;-42
2021/12/20 04:26:12;;;;;;;20.38;4.18;;;2.70;99.90;;;;;;4904815;28;90009;-38
2021/12/20 04:28:39;;;;;;;12.90;3.47;;;2.60;99.90;;;;;;4904704;28;89344;-37
2021/12/20 04:31:05;;;;;;;28.30;4.75;;;2.60;99.90;;;;;;4905187;28;88803;-39
2021/12/20 04:33:30;;;;;;;10.63;3.90;;;2.60;99.90;;;;;;4904950;28;89868;-41
2021/12/20 04:35:56;;;;;;;25.08;4.32;;;2.60;99.90;;;;;;4904507;28;89304;-41
2021/12/20 04:38:23;;;;;;;16.77;4.60;;;2.60;99.90;;;;;;4904286;28;87703;-42
2021/12/20 04:40:48;;;;;;;12.65;3.85;;;2.60;99.90;;;;;;4904342;28;88991;-44
2021/12/20 04:43:14;;;;;;;29.00;5.60;;;2.70;99.90;;;;;;4904217;28;90051;-37
2021/12/20 04:45:40;;;;;;;18.27;4.57;;;2.70;99.90;;;;;;4904318;28;89804;-33
2021/12/20 04:48:06;;;;;;;19.50;5.20;;;2.70;99.90;;;;;;4905296;28;89882;-41
2021/12/20 04:50:32;;;;;;;16.00;5.00;;;2.70;99.90;;;;;;4904947;28;89368;-38
2021/12/20 04:52:58;;;;;;;13.18;3.88;;;2.70;99.90;;;;;;4903783;28;90325;-43
2021/12/20 04:55:25;;;;;;;9.20;4.32;;;2.70;99.90;;;;;;4903293;28;90164;-38
2021/12/20 04:57:51;;;;;;;10.43;3.78;;;2.70;99.90;;;;;;4904035;28;89146;-40
2021/12/20 05:00:20;;;;;;;18.10;4.10;;;2.60;99.90;;;;;;4904909;28;88433;-39
2021/12/20 05:02:46;;;;;;;13.50;4.00;;;2.60;99.90;;;;;;4904001;28;89060;-41
2021/12/20 05:05:12;;;;;;;13.93;4.43;;;2.60;99.90;;;;;;4904133;28;89406;-36
2021/12/20 05:07:39;;;;;;;18.00;3.70;;;2.60;99.90;;;;;;4903862;28;88379;-40
2021/12/20 05:10:09;;;;;;;12.55;3.60;;;2.60;99.90;;;;;;4904238;28;88023;-43
2021/12/20 05:12:35;;;;;;;18.15;4.35;;;2.50;99.90;;;;;;4904965;28;90043;-43
2021/12/20 05:15:00;;;;;;;19.23;4.40;;;2.50;99.90;;;;;;4903870;28;89671;-36
2021/12/20 05:17:26;;;;;;;13.40;3.55;;;2.40;99.90;;;;;;4903752;28;87575;-39
2021/12/20 05:19:51;;;;;;;11.77;3.95;;;2.40;99.90;;;;;;4904188;28;89053;-35
2021/12/20 05:22:17;;;;;;;11.98;3.78;;;2.30;99.90;;;;;;4904095;28;90507;-31
2021/12/20 05:24:42;;;;;;;13.10;3.45;;;2.20;99.90;;;;;;4904050;28;89455;-42
2021/12/20 05:27:08;;;;;;;12.45;3.70;;;2.20;99.90;;;;;;4903607;28;89836;-35
2021/12/20 05:29:34;;;;;;;12.60;3.83;;;2.10;99.90;;;;;;4903963;28;89360;-42
2021/12/20 05:32:02;;;;;;;14.00;3.78;;;2.10;99.90;;;;;;4903201;28;90086;-36
2021/12/20 05:34:28;;;;;;;14.15;3.50;;;2.00;99.90;;;;;;4903234;28;89998;-41
2021/12/20 05:36:53;;;;;;;14.18;3.67;;;1.90;99.90;;;;;;4903925;28;88428;-39
2021/12/20 05:39:19;;;;;;;13.80;3.60;;;1.90;99.90;;;;;;4903438;28;88851;-38
2021/12/20 05:41:45;;;;;;;9.40;3.00;;;1.80;99.90;;;;;;4903049;28;90626;-37
2021/12/20 05:44:11;;;;;;;21.98;3.97;;;1.80;99.90;;;;;;4903175;28;90091;-40
2021/12/20 05:46:36;;;;;;;13.45;4.63;;;1.80;99.90;;;;;;4904138;28;88359;-40
2021/12/20 05:49:02;;;;;;;16.50;3.92;;;1.80;99.90;;;;;;4903676;28;89997;-39
2021/12/20 05:51:28;;;;;;;19.02;4.03;;;1.80;99.90;;;;;;4904006;28;90203;-38
2021/12/20 05:53:54;;;;;;;10.75;3.33;;;1.70;99.90;;;;;;4902840;28;89520;-41
2021/12/20 05:56:19;;;;;;;13.50;4.35;;;1.70;99.90;;;;;;4904077;28;89440;-36
2021/12/20 05:58:45;;;;;;;12.45;4.35;;;1.70;99.90;;;;;;4902820;28;88464;-38
2021/12/20 06:01:11;;;;;;;12.18;3.50;;;1.70;99.90;;;;;;4903975;28;89537;-40
2021/12/20 06:03:36;;;;;;;10.52;3.65;;;1.70;99.90;;;;;;4903281;28;88657;-45
2021/12/20 06:06:02;;;;;;;14.35;4.35;;;1.60;99.90;;;;;;4902706;28;89793;-44
2021/12/20 06:08:28;;;;;;;20.65;4.00;;;1.60;99.90;;;;;;4902833;28;87739;-35
2021/12/20 06:10:53;;;;;;;7.00;3.30;;;1.60;99.90;;;;;;4902846;28;90329;-37
2021/12/20 06:13:19;;;;;;;12.30;4.15;;;1.60;99.90;;;;;;4903670;28;90470;-40
2021/12/20 06:15:44;;;;;;;12.85;3.90;;;1.60;99.90;;;;;;4901981;28;89293;-36
2021/12/20 06:18:10;;;;;;;10.27;2.88;;;1.60;99.90;;;;;;4903276;28;88782;-41
2021/12/20 06:20:35;;;;;;;12.88;3.80;;;1.60;99.90;;;;;;4902698;28;90024;-43
2021/12/20 06:23:01;;;;;;;16.95;4.68;;;1.50;99.90;;;;;;4902906;28;90139;-40
2021/12/20 06:25:27;;;;;;;13.45;3.70;;;1.50;99.90;;;;;;4903942;28;89708;-39
2021/12/20 06:27:53;;;;;;;12.93;3.92;;;1.50;99.90;;;;;;4902265;28;87528;-35
2021/12/20 06:30:19;;;;;;;9.80;4.35;;;1.50;99.90;;;;;;4903186;28;90452;-39
2021/12/20 06:32:45;;;;;;;15.73;4.07;;;1.50;99.90;;;;;;4902105;28;89576;-34
2021/12/20 06:35:13;;;;;;;13.07;4.80;;;1.40;99.90;;;;;;4903389;28;87926;-35
2021/12/20 06:37:43;;;;;;;15.60;4.72;;;1.40;99.90;;;;;;4903576;28;88500;-40
2021/12/20 06:40:10;;;;;;;16.15;4.75;;;1.40;99.90;;;;;;4903061;28;90133;-37
2021/12/20 06:42:37;;;;;;;22.00;6.28;;;1.40;99.90;;;;;;4902860;28;91128;-36
2021/12/20 06:45:05;;;;;;;24.80;5.57;;;1.30;99.90;;;;;;4902637;28;89939;-37
2021/12/20 06:47:33;;;;;;;17.20;4.37;;;1.30;99.90;;;;;;4902835;28;87617;-36
2021/12/20 06:49:59;;;;;;;16.65;5.55;;;1.30;99.90;;;;;;4902638;28;90364;-40
2021/12/20 06:52:24;;;;;;;19.58;5.50;;;1.30;99.90;;;;;;4902868;28;89981;-38
2021/12/20 06:54:52;;;;;;;20.95;5.80;;;1.30;99.90;;;;;;4902321;28;88800;-39
2021/12/20 06:57:20;;;;;;;23.92;5.65;;;1.30;99.90;;;;;;4903040;28;88168;-34
2021/12/20 06:59:45;;;;;;;22.60;6.75;;;1.20;99.90;;;;;;4902909;28;90320;-34
2021/12/20 07:02:11;;;;;;;14.68;5.50;;;1.20;99.90;;;;;;4901919;28;89650;-35
2021/12/20 07:04:36;;;;;;;20.77;6.30;;;1.20;99.90;;;;;;4902810;28;88734;-37
2021/12/20 07:07:02;;;;;;;28.15;6.88;;;1.20;99.90;;;;;;4902352;28;88164;-43
2021/12/20 07:09:28;;;;;;;19.98;6.45;;;1.20;99.90;;;;;;4928301;28;90319;-39
2021/12/20 07:11:53;;;;;;;19.60;4.93;;;1.10;99.90;;;;;;4941407;28;89830;-34
2021/12/20 07:14:20;;;;;;;11.93;3.95;;;1.10;99.90;;;;;;4940794;28;87916;-40
2021/12/20 07:16:45;;;;;;;12.90;4.70;;;0.90;99.90;;;;;;4941087;28;89108;-37
2021/12/20 07:19:11;;;;;;;15.18;4.03;;;0.80;99.90;;;;;;4941076;28;90772;-33
2021/12/20 07:21:37;;;;;;;18.15;4.90;;;0.70;99.90;;;;;;4941498;28;89523;-44
2021/12/20 07:24:03;;;;;;;14.63;4.68;;;0.70;99.90;;;;;;4940577;28;89676;-37
2021/12/20 07:26:30;;;;;;;19.80;5.35;;;0.70;99.90;;;;;;4940871;28;90264;-34
2021/12/20 07:28:56;;;;;;;18.85;5.18;;;0.60;99.90;;;;;;4943301;28;90719;-38
2021/12/20 07:31:22;;;;;;;18.23;5.85;;;0.60;99.90;;;;;;4944414;28;89986;-42
2021/12/20 07:33:48;;;;;;;13.43;5.78;;;0.70;99.90;;;;;;4943952;28;89485;-41
2021/12/20 07:36:15;;;;;;;26.08;7.15;;;0.60;99.90;;;;;;4944494;28;87559;-40
2021/12/20 07:38:41;;;;;;;23.60;7.85;;;0.70;99.90;;;;;;4944650;28;90066;-36
2021/12/20 07:41:07;;;;;;;17.65;6.53;;;0.70;99.90;;;;;;4943418;28;89107;-42
2021/12/20 07:43:32;;;;;;;26.95;8.07;;;0.70;99.90;;;;;;4923129;28;101911;-33
2021/12/20 07:45:58;;;;;;;15.43;6.68;;;0.70;99.90;;;;;;4943626;28;89183;-41
2021/12/20 07:48:24;;;;;;;14.32;5.43;;;0.70;99.90;;;;;;4943945;28;90331;-38
2021/12/20 07:50:51;;;;;;;25.83;7.05;;;0.70;99.90;;;;;;4943377;28;89617;-40
2021/12/20 07:53:17;;;;;;;17.98;6.00;;;0.80;99.90;;;;;;4943935;28;89283;-38
2021/12/20 07:55:43;;;;;;;26.60;7.25;;;0.70;99.90;;;;;;4944401;28;90073;-35
2021/12/20 07:58:08;;;;;;;21.23;8.23;;;0.70;99.90;;;;;;4943780;28;90319;-39
2021/12/20 08:00:35;;;;;;;19.45;7.90;;;0.80;99.90;;;;;;4943680;28;88879;-42
2021/12/20 08:03:01;;;;;;;21.52;7.93;;;0.80;99.90;;;;;;4944141;28;89158;-35
2021/12/20 08:05:28;;;;;;;23.13;7.60;;;0.80;99.90;;;;;;4943389;28;87758;-35
2021/12/20 08:07:54;;;;;;;19.70;7.20;;;0.80;99.90;;;;;;4944068;28;90313;-36
2021/12/20 08:10:23;;;;;;;16.95;7.82;;;0.80;99.90;;;;;;4941083;28;90672;-41
2021/12/20 08:12:49;;;;;;;;;;;0.80;99.90;;;;;;4923165;28;88838;-37
2021/12/20 08:15:15;;;;;;;;;;;0.80;99.90;;;;;;4924390;28;89450;-42
2021/12/20 08:17:40;;;;;;;;;;;0.80;99.90;;;;;;4938860;28;90064;-35
2021/12/20 08:20:06;;;;;;;;;;;0.80;99.90;;;;;;4942748;28;89335;-41
2021/12/20 08:22:32;;;;;;;;;;;0.80;99.90;;;;;;4943887;28;88244;-38
2021/12/20 08:24:58;;;;;;;;;;;0.80;99.90;;;;;;4943079;28;90408;-39
2021/12/20 08:27:24;;;;;;;;;;;0.80;99.90;;;;;;4945875;28;90358;-44
2021/12/20 08:29:50;;;;;;;;;;;0.90;99.90;;;;;;4946658;28;89588;-40
2021/12/20 08:35:37;;;;;;;;;;;0.90;99.90;;;;;;4942072;28;89056;-39
2021/12/20 08:38:03;;;;;;;;;;;1.10;99.90;;;;;;4941161;28;91679;-40
2021/12/20 08:40:28;;;;;;;;;;;1.20;99.90;;;;;;4942903;28;90343;-39
2021/12/20 08:42:54;;;;;;;;;;;1.20;99.90;;;;;;4942448;28;89339;-38
2021/12/20 08:45:20;;;;;;;;;;;1.20;99.90;;;;;;4943758;28;88332;-38
2021/12/20 08:47:46;;;;;;;;;;;1.20;99.90;;;;;;4942914;28;90286;-41
2021/12/20 08:50:14;;;;;;;;;;;1.20;99.90;;;;;;4942517;28;89858;-38
2021/12/20 08:52:39;;;;;;;;;;;1.30;99.90;;;;;;4943050;28;89226;-35
2021/12/20 08:55:05;;;;;;;;;;;1.30;99.90;;;;;;4943205;28;88279;-43
2021/12/20 08:57:30;;;;;;;;;;;1.40;99.90;;;;;;4942655;28;91799;-36
2021/12/20 08:59:56;;;;;;;;;;;1.40;99.90;;;;;;4942175;28;89640;-37
2021/12/20 09:02:22;;;;;;;;;;;1.50;99.90;;;;;;4943274;28;88490;-38
2021/12/20 09:04:48;;;;;;;;;;;1.50;99.90;;;;;;4941895;28;89517;-44
2021/12/20 09:07:16;;;;;;;;;;;1.50;99.90;;;;;;4943241;28;89865;-35
2021/12/20 09:09:44;;;;;;;;;;;1.50;99.90;;;;;;4942357;28;88779;-39
2021/12/20 09:12:10;;;;;;;;;;;1.50;99.90;;;;;;4943250;28;90137;-40
2021/12/20 09:14:37;;;;;;;;;;;1.50;99.90;;;;;;4942279;28;89479;-41
2021/12/20 09:17:02;;;;;;;;;;;1.60;99.90;;;;;;4942079;28;90701;-43
2021/12/20 09:19:28;;;;;;;;;;;1.60;99.90;;;;;;4940537;28;89285;-35
2021/12/20 09:21:53;;;;;;;;;;;1.70;99.90;;;;;;4940453;28;88230;-37
2021/12/20 09:24:19;;;;;;;;;;;1.80;99.90;;;;;;4932745;28;89910;-39
2021/12/20 09:26:44;;;;;;;;;;;1.90;99.90;;;;;;4941922;28;91301;-40
2021/12/20 09:29:10;;;;;;;;;;;2.20;99.90;;;;;;4941091;28;90787;-38
2021/12/20 09:31:35;;;;;;;;;;;2.40;99.90;;;;;;4942278;28;89581;-40
2021/12/20 09:34:01;;;;;;;;;;;2.50;99.90;;;;;;4941873;28;88226;-33
2021/12/20 09:36:29;;;;;;;;;;;2.70;99.90;;;;;;4941608;28;90855;-37
2021/12/20 09:38:56;;;;;;;;;;;2.80;99.90;;;;;;4941327;28;90348;-34
2021/12/20 09:41:59;;;;;;;;;;;2.80;99.90;;;;;;4942278;28;90327;-35
2021/12/20 09:44:13;;;;;;;;;;;2.90;99.90;;;;;;4940184;28;88931;-40
2021/12/20 09:46:38;;;;;;;;;;;2.90;99.90;;;;;;4941774;28;90627;-43
2021/12/20 09:49:05;;;;;;;;;;;2.90;99.90;;;;;;4941281;28;90137;-40
2021/12/20 09:51:30;;;;;;;;;;;2.90;99.90;;;;;;4941815;28;87818;-39
2021/12/20 09:53:56;;;;;;;;;;;2.90;99.90;;;;;;4937907;28;89864;-38
2021/12/20 09:56:22;;;;;;;;;;;2.90;99.90;;;;;;4941904;28;89719;-36
2021/12/20 09:58:50;;;;;;;;;;;2.90;99.90;;;;;;4941752;28;90038;-36
2021/12/20 10:01:18;;;;;;;;;;;2.90;99.90;;;;;;4941440;28;89372;-42
2021/12/20 10:03:43;;;;;;;;;;;2.80;99.90;;;;;;4941013;28;90269;-38
2021/12/20 10:06:09;;;;;;;;;;;2.80;99.90;;;;;;4942028;28;90114;-36
2021/12/20 10:08:37;;;;;;;;;;;2.70;99.90;;;;;;4940815;28;88653;-42
2021/12/20 10:11:04;;;;;;;;;;;2.70;99.90;;;;;;4941366;28;88924;-43
2021/12/20 10:13:31;;;;;;;;;;;2.70;99.90;;;;;;4941888;28;88273;-43
2021/12/20 10:15:57;;;;;;;;;;;2.70;99.90;;;;;;4941155;28;91380;-38
2021/12/20 10:18:23;;;;;;;;;;;2.80;99.90;;;;;;4940895;28;89859;-40
2021/12/20 10:20:50;;;;;;;;;;;2.90;99.90;;;;;;4918187;28;89945;-35
2021/12/20 10:23:19;;;;;;;;;;;2.90;99.90;;;;;;4915015;28;87810;-40
2021/12/20 10:25:46;;;;;;;;;;;3.00;99.90;;;;;;4912142;28;90126;-41
2021/12/20 10:28:13;;;;;;;;;;;3.10;99.90;;;;;;4910124;28;89381;-36
2021/12/20 10:30:43;;;;;;;;;;;3.20;99.90;;;;;;4897316;28;89587;-44
2021/12/20 10:33:10;;;;;;;;;;;3.20;99.90;;;;;;4896859;28;88719;-45
2021/12/20 10:35:40;;;;;;;;;;;3.30;99.90;;;;;;4897888;28;92569;-34
2021/12/20 10:38:07;;;;;;;;;;;3.40;99.90;;;;;;4911989;28;90263;-38
2021/12/20 10:40:34;;;;;;;;;;;3.50;99.90;;;;;;4910011;28;89139;-36
2021/12/20 10:43:04;;;;;;;;;;;3.50;99.90;;;;;;4930755;28;89945;-37
2021/12/20 10:45:30;;;;;;;;;;;3.60;99.90;;;;;;4924676;28;90750;-38
2021/12/20 10:48:06;;;;;;;;;;;3.70;99.90;;;;;;4916480;28;88532;-38
2021/12/20 10:50:34;;;;;;;;;;;3.80;99.90;;;;;;4897224;28;89057;-39
2021/12/20 10:53:16;;;;;;;;;;;3.90;99.90;;;;;;4897264;28;90303;-40
2021/12/20 10:55:46;;;;;;;;;;;4.00;99.90;;;;;;4897481;28;90149;-41
2021/12/20 10:58:29;;;;;;;;;;;4.10;99.90;;;;;;4905896;28;89382;-38
2021/12/20 11:01:02;;;;;;;;;;;4.20;99.90;;;;;;4905839;28;88418;-37
2021/12/20 11:03:35;;;;;;;;;;;4.30;99.90;;;;;;4902057;28;88453;-40
2021/12/20 11:06:14;;;;;;;;;;;4.40;99.90;;;;;;4900066;28;91010;-41
2021/12/20 11:11:24;;;;;;;;;;;4.60;99.90;;;;;;4922095;28;88392;-39
2021/12/20 11:13:50;;;;;;;;;;;4.60;99.90;;;;;;4918701;28;89109;-38
2021/12/20 11:16:27;;;;;;;;;;;4.70;99.90;;;;;;4933141;28;90739;-40
2021/12/20 11:19:13;;;;;;;;;;;4.80;99.90;;;;;;4937843;28;89615;-44
2021/12/20 11:21:50;;;;;;;;;;;4.80;99.90;;;;;;4930060;28;88941;-39
2021/12/20 11:24:37;;;;;;;;;;;4.90;99.90;;;;;;4928360;28;89759;-41
2021/12/20 12:10:43;;;;;;;14.10;8.63;;;5.60;99.90;;;;;;5030269;28;87994;-42
2021/12/20 12:33:18;;;;;;;15.13;8.40;;;6.00;99.90;;;;;;5069641;27;88356;-41
2021/12/20 12:50:43;;;;;;;20.92;8.45;;;5.70;99.90;;;;;;4994799;28;88982;-42
2021/12/20 12:53:47;;;;;;;17.30;7.95;;;5.70;99.90;;;;;;4958013;28;87937;-38
2021/12/20 12:56:41;;;;;;;17.55;7.15;;;5.70;99.90;;;;;;4946739;28;87580;-42
2021/12/20 12:59:30;;;;;;;15.48;7.25;;;5.70;99.90;;;;;;4935721;28;87578;-40
2021/12/20 13:02:43;;;;;;;15.50;7.63;;;5.70;99.90;;;;;;4939245;28;91063;-42
2021/12/20 13:05:46;;;;;;;12.77;7.30;;;5.70;99.90;;;;;;4896813;28;87721;-40
2021/12/20 13:15:39;;;;;;;17.55;8.77;;;5.60;99.90;;;;;;4879932;28;90776;-41
2021/12/20 13:18:28;;;;;;;13.00;7.32;;;5.60;99.90;;;;;;4881407;28;87545;-45
2021/12/20 13:49:31;;;;;;;11.23;6.70;;;5.60;99.90;;;;;;4866179;28;87666;-39
2021/12/20 13:55:43;;;;;;;13.80;6.72;;;5.50;99.90;;;;;;4913228;28;87797;-40
2021/12/20 13:58:15;;;;;;;7.90;6.78;;;5.50;99.90;;;;;;4936260;28;91722;-40
2021/12/20 14:01:00;;;;;;;11.15;6.72;;;5.50;99.90;;;;;;4978385;28;89163;-40
2021/12/20 14:10:51;;;;;;;12.95;6.05;;;5.50;99.90;;;;;;5012569;28;87767;-40
2021/12/20 14:13:30;;;;;;;12.55;5.78;;;5.50;99.90;;;;;;4999764;28;87981;-40
2021/12/20 14:16:20;;;;;;;;;;;5.50;99.90;;;;;;4983296;28;87679;-40
2021/12/20 14:45:30;;;;;;;8.48;5.15;;;4.90;99.90;;;;;;4992402;28;90036;-40
2021/12/20 14:48:20;;;;;;;9.88;6.05;;;4.80;99.90;;;;;;4993240;28;91457;-39
2021/12/20 14:50:48;;;;;;;9.55;6.40;;;4.70;99.90;;;;;;4992564;28;89625;-40
2021/12/20 14:53:20;;;;;;;11.02;5.30;;;4.70;99.90;;;;;;4871729;28;88985;-40
2021/12/20 14:55:47;;;;;;;11.05;5.60;;;4.60;99.90;;;;;;4979329;28;88574;-39
2021/12/20 14:58:13;;;;;;;7.00;4.22;;;4.60;99.90;;;;;;4886108;28;90877;-38
2021/12/20 15:00:41;;;;;;;14.55;4.80;;;4.50;99.90;;;;;;4933786;28;88881;-43
2021/12/20 15:03:07;;;;;;;10.57;4.70;;;4.40;99.90;;;;;;4972469;28;89263;-41
2021/12/20 15:05:33;;;;;;;9.23;4.80;;;4.30;99.90;;;;;;4971538;28;89077;-43
2021/12/20 15:07:58;;;;;;;7.93;4.95;;;4.30;99.90;;;;;;4971197;28;90150;-38
2021/12/20 15:10:24;;;;;;;9.07;4.18;;;4.20;99.90;;;;;;4973083;28;89654;-41
2021/12/20 15:12:50;;;;;;;7.10;4.63;;;4.10;99.90;;;;;;4972043;28;89798;-36
2021/12/20 15:15:16;;;;;;;10.52;4.72;;;4.10;99.90;;;;;;4973544;28;88074;-39
2021/12/20 15:17:42;;;;;;;9.27;4.38;;;4.10;99.90;;;;;;4973648;28;91565;-40
2021/12/20 15:20:11;;;;;;;11.93;4.05;;;4.10;99.90;;;;;;4973576;28;89795;-42
2021/12/20 15:22:36;;;;;;;4.97;3.35;;;4.00;99.90;;;;;;4974201;28;88933;-44
2021/12/20 15:25:03;;;;;;;8.68;4.15;;;3.90;99.90;;;;;;4973956;28;88262;-41
2021/12/20 15:27:29;;;;;;;9.13;5.00;;;3.90;99.90;;;;;;4973997;28;91833;-40
2021/12/20 15:29:54;;;;;;;6.30;4.30;;;3.90;99.90;;;;;;4971474;28;89977;-40
2021/12/20 15:32:20;;;;;;;11.48;4.28;;;3.90;99.90;;;;;;4971604;28;89237;-40
2021/12/20 15:34:48;;;;;;;5.50;3.47;;;3.90;99.90;;;;;;4970555;28;88485;-44
2021/12/20 15:37:14;;;;;;;7.97;4.40;;;3.90;99.90;;;;;;4971916;28;90431;-40
2021/12/20 15:39:41;;;;;;;5.68;4.13;;;3.80;99.90;;;;;;4971689;28;88845;-42
2021/12/20 15:42:12;;;;;;;6.63;3.75;;;3.80;99.90;;;;;;4970995;28;88562;-38
2021/12/20 15:44:37;;;;;;;7.60;3.20;;;3.70;99.90;;;;;;4971997;28;88743;-39
2021/12/20 15:47:03;;;;;;;9.60;3.15;;;3.70;99.90;;;;;;4971953;28;90063;-41
2021/12/20 15:49:29;;;;;;;8.40;2.88;;;3.70;99.90;;;;;;4972044;28;89556;-39
2021/12/20 15:51:55;;;;;;;4.65;2.70;;;3.60;99.90;;;;;;4918137;28;88046;-45
2021/12/20 15:54:20;;;;;;;4.60;2.47;;;3.60;99.90;;;;;;4954734;28;89551;-38
2021/12/20 15:56:46;;;;;;;5.00;3.38;;;3.40;99.90;;;;;;4971495;28;92469;-38
2021/12/20 15:59:11;;;;;;;3.80;3.05;;;3.30;99.90;;;;;;4972098;28;89479;-38
2021/12/20 16:01:37;;;;;;;6.95;3.00;;;3.20;99.90;;;;;;4972273;28;87391;-40
2021/12/20 16:04:03;;;;;;;6.15;3.30;;;3.10;99.90;;;;;;4972189;28;88841;-44